sensor_id;sensor_type;location;lat;lon;timestamp;temperature;humidity
13684;DHT22;6914;53.552;9.908;2022-12-20T00:00:06;6.50;99.90
13684;DHT22;6914;53.552;9.908;2022-12-20T00:02:33;6.60;99.90
13684;DHT22;6914;53.552;9.908;2022-12-20T00:05:00;6.70;99.90
13684;DHT22;6914;53.552;9.908;2022-12-20T00:07:27;6.70;99.90
13684;DHT22;6914;53.552;9.908;2022-12-20T00:09:54;6.70;99.90
13684;DHT22;6914;53.552;9.908;2022-12-20T00:12:21;7.40;99.90
13684;DHT22;6914;53.552;9.908;2022-12-20T00:14:49;6.70;99.90
13684;DHT22;6914;53.552;9.908;2022-12-20T00:17:16;6.70;99.90
13684;DHT22;6914;53.552;9.908;2022-12-20T00:19:43;6.90;99.90
13684;DHT22;6914;53.552;9.908;2022-12-20T00:22:10;6.70;99.90
13684;DHT22;6914;53.552;9.908;2022-12-20T00:24:37;6.70;99.90
13684;DHT22;6914;53.552;9.908;2022-12-20T00:27:04;6.80;99.90
13684;DHT22;6914;53.552;9.908;2022-12-20T00:29:31;6.80;99.90
13684;DHT22;6914;53.552;9.908;2022-12-20T00:31:59;6.80;99.90
13684;DHT22;6914;53.552;9.908;2022-12-20T00:34:26;6.80;99.90
13684;DHT22;6914;53.552;9.908;2022-12-20T00:36:53;6.80;99.90
13684;DHT22;6914;53.552;9.908;2022-12-20T00:39:20;6.70;99.90
13684;DHT22;6914;53.552;9.908;2022-12-20T00:41:47;6.70;99.90
13684;DHT22;6914;53.552;9.908;2022-12-20T00:44:14;6.50;99.90
13684;DHT22;6914;53.552;9.908;2022-12-20T00:46:41;7.00;99.90
13684;DHT22;6914;53.552;9.908;2022-12-20T00:49:09;6.30;99.90
13684;DHT22;6914;53.552;9.908;2022-12-20T00:51:36;6.90;99.90
13684;DHT22;6914;53.552;9.908;2022-12-20T00:54:03;6.80;99.90
13684;DHT22;6914;53.552;9.908;2022-12-20T00:56:30;6.20;99.90
13684;DHT22;6914;53.552;9.908;2022-12-20T00:58:58;7.60;99.90
13684;DHT22;6914;53.552;9.908;2022-12-20T01:01:27;6.80;99.90
13684;DHT22;6914;53.552;9.908;2022-12-20T01:03:55;6.70;99.90
13684;DHT22;6914;53.552;9.908;2022-12-20T01:06:24;6.50;99.90
13684;DHT22;6914;53.552;9.908;2022-12-20T01:08:51;6.70;99.90
13684;DHT22;6914;53.552;9.908;2022-12-20T01:11:20;6.60;99.90
13684;DHT22;6914;53.552;9.908;2022-12-20T01:13:49;6.70;99.90
13684;DHT22;6914;53.552;9.908;2022-12-20T01:16:19;6.70;99.90
13684;DHT22;6914;53.552;9.908;2022-12-20T01:18:48;6.70;99.90
13684;DHT22;6914;53.552;9.908;2022-12-20T01:21:17;6.70;99.90
13684;DHT22;6914;53.552;9.908;2022-12-20T01:23:46;6.80;99.90
13684;DHT22;6914;53.552;9.908;2022-12-20T01:26:15;7.00;99.90
13684;DHT22;6914;53.552;9.908;2022-12-20T01:28:44;7.00;99.90
13684;DHT22;6914;53.552;9.908;2022-12-20T01:31:13;7.00;99.90
13684;DHT22;6914;53.552;9.908;2022-12-20T01:33:41;6.90;99.90
13684;DHT22;6914;53.552;9.908;2022-12-20T01:36:12;7.00;99.90
13684;DHT22;6914;53.552;9.908;2022-12-20T01:38:39;7.20;99.90
13684;DHT22;6914;53.552;9.908;2022-12-20T01:41:08;7.00;99.90
13684;DHT22;6914;53.552;9.908;2022-12-20T01:43:48;7.10;99.90
13684;DHT22;6914;53.552;9.908;2022-12-20T01:46:17;6.70;99.90
13684;DHT22;6914;53.552;9.908;2022-12-20T01:48:48;7.20;99.90
13684;DHT22;6914;53.552;9.908;2022-12-20T01:51:17;7.30;99.90
13684;DHT22;6914;53.552;9.908;2022-12-20T01:53:45;7.30;99.90
13684;DHT22;6914;53.552;9.908;2022-12-20T01:56:14;7.60;99.90
13684;DHT22;6914;53.552;9.908;2022-12-20T01:58:42;7.30;99.90
13684;DHT22;6914;53.552;9.908;2022-12-20T02:01:11;7.30;99.90
13684;DHT22;6914;53.552;9.908;2022-12-20T02:03:39;7.40;99.90
13684;DHT22;6914;53.552;9.908;2022-12-20T02:06:15;7.50;99.90
13684;DHT22;6914;53.552;9.908;2022-12-20T02:08:43;7.50;99.90
13684;DHT22;6914;53.552;9.908;2022-12-20T02:14:27;7.50;99.90
13684;DHT22;6914;53.552;9.908;2022-12-20T02:17:01;7.50;99.90
13684;DHT22;6914;53.552;9.908;2022-12-20T02:22:57;7.60;99.90
13684;DHT22;6914;53.552;9.908;2022-12-20T02:25:41;7.60;99.90
13684;DHT22;6914;53.552;9.908;2022-12-20T02:28:27;7.60;99.90
13684;DHT22;6914;53.552;9.908;2022-12-20T02:30:59;7.80;99.90
13684;DHT22;6914;53.552;9.908;2022-12-20T02:33:27;7.70;99.90
13684;DHT22;6914;53.552;9.908;2022-12-20T02:35:54;7.70;99.90
13684;DHT22;6914;53.552;9.908;2022-12-20T02:38:27;7.70;99.90
13684;DHT22;6914;53.552;9.908;2022-12-20T02:40:57;7.90;99.90
13684;DHT22;6914;53.552;9.908;2022-12-20T02:43:26;7.80;99.90
13684;DHT22;6914;53.552;9.908;2022-12-20T02:46:14;7.90;99.90
13684;DHT22;6914;53.552;9.908;2022-12-20T02:48:41;7.90;99.90
13684;DHT22;6914;53.552;9.908;2022-12-20T02:51:09;8.00;99.90
13684;DHT22;6914;53.552;9.908;2022-12-20T02:53:38;8.00;99.90
13684;DHT22;6914;53.552;9.908;2022-12-20T02:56:11;9.00;99.90
13684;DHT22;6914;53.552;9.908;2022-12-20T02:58:44;7.90;99.90
13684;DHT22;6914;53.552;9.908;2022-12-20T03:01:18;8.00;99.90
13684;DHT22;6914;53.552;9.908;2022-12-20T03:03:47;8.10;99.90
13684;DHT22;6914;53.552;9.908;2022-12-20T03:06:15;8.00;99.90
13684;DHT22;6914;53.552;9.908;2022-12-20T03:08:42;8.00;99.90
13684;DHT22;6914;53.552;9.908;2022-12-20T03:11:09;8.10;99.90
13684;DHT22;6914;53.552;9.908;2022-12-20T03:13:36;8.00;99.90
13684;DHT22;6914;53.552;9.908;2022-12-20T03:16:03;8.00;99.90
13684;DHT22;6914;53.552;9.908;2022-12-20T03:18:32;8.70;99.90
13684;DHT22;6914;53.552;9.908;2022-12-20T03:20:58;8.10;99.90
13684;DHT22;6914;53.552;9.908;2022-12-20T03:23:25;8.30;99.90
13684;DHT22;6914;53.552;9.908;2022-12-20T03:25:53;8.20;99.90
13684;DHT22;6914;53.552;9.908;2022-12-20T03:28:20;8.20;99.90
13684;DHT22;6914;53.552;9.908;2022-12-20T03:30:47;8.30;99.90
13684;DHT22;6914;53.552;9.908;2022-12-20T03:33:14;8.30;99.90
13684;DHT22;6914;53.552;9.908;2022-12-20T03:35:43;8.40;99.90
13684;DHT22;6914;53.552;9.908;2022-12-20T03:38:10;8.40;99.90
13684;DHT22;6914;53.552;9.908;2022-12-20T03:40:36;8.60;99.90
13684;DHT22;6914;53.552;9.908;2022-12-20T03:43:03;8.50;99.90
13684;DHT22;6914;53.552;9.908;2022-12-20T03:45:30;8.40;99.90
13684;DHT22;6914;53.552;9.908;2022-12-20T03:47:57;8.50;99.90
13684;DHT22;6914;53.552;9.908;2022-12-20T03:50:24;8.60;99.90
13684;DHT22;6914;53.552;9.908;2022-12-20T03:52:52;8.50;99.90
13684;DHT22;6914;53.552;9.908;2022-12-20T03:55:19;8.40;99.90
13684;DHT22;6914;53.552;9.908;2022-12-20T03:57:46;8.60;99.90
13684;DHT22;6914;53.552;9.908;2022-12-20T04:00:14;8.50;99.90
13684;DHT22;6914;53.552;9.908;2022-12-20T04:02:41;8.50;99.90
13684;DHT22;6914;53.552;9.908;2022-12-20T04:05:08;8.60;99.90
13684;DHT22;6914;53.552;9.908;2022-12-20T04:07:35;8.50;99.90
13684;DHT22;6914;53.552;9.908;2022-12-20T04:10:05;8.60;99.90
13684;DHT22;6914;53.552;9.908;2022-12-20T04:12:32;8.50;99.90
13684;DHT22;6914;53.552;9.908;2022-12-20T04:14:59;8.60;99.90
13684;DHT22;6914;53.552;9.908;2022-12-20T04:17:26;8.60;99.90
13684;DHT22;6914;53.552;9.908;2022-12-20T04:19:53;8.60;99.90
13684;DHT22;6914;53.552;9.908;2022-12-20T04:22:20;8.60;99.90
13684;DHT22;6914;53.552;9.908;2022-12-20T04:24:47;8.60;99.90
13684;DHT22;6914;53.552;9.908;2022-12-20T04:27:15;8.60;99.90
13684;DHT22;6914;53.552;9.908;2022-12-20T04:29:42;8.60;99.90
13684;DHT22;6914;53.552;9.908;2022-12-20T04:32:09;8.70;99.90
13684;DHT22;6914;53.552;9.908;2022-12-20T04:34:36;8.50;99.90
13684;DHT22;6914;53.552;9.908;2022-12-20T04:37:03;8.60;99.90
13684;DHT22;6914;53.552;9.908;2022-12-20T04:39:49;8.70;99.90
13684;DHT22;6914;53.552;9.908;2022-12-20T04:42:20;8.60;99.90
13684;DHT22;6914;53.552;9.908;2022-12-20T04:44:47;8.70;99.90
13684;DHT22;6914;53.552;9.908;2022-12-20T04:47:13;8.80;99.90
13684;DHT22;6914;53.552;9.908;2022-12-20T04:49:44;8.80;99.90
13684;DHT22;6914;53.552;9.908;2022-12-20T04:52:13;7.10;99.90
13684;DHT22;6914;53.552;9.908;2022-12-20T04:54:58;8.60;99.90
13684;DHT22;6914;53.552;9.908;2022-12-20T04:57:26;8.80;99.90
13684;DHT22;6914;53.552;9.908;2022-12-20T04:59:52;8.90;99.90
13684;DHT22;6914;53.552;9.908;2022-12-20T05:02:20;8.20;99.90
13684;DHT22;6914;53.552;9.908;2022-12-20T05:04:47;7.90;99.90
13684;DHT22;6914;53.552;9.908;2022-12-20T05:07:14;8.40;99.90
13684;DHT22;6914;53.552;9.908;2022-12-20T05:09:47;8.60;99.90
13684;DHT22;6914;53.552;9.908;2022-12-20T05:12:13;8.10;99.90
13684;DHT22;6914;53.552;9.908;2022-12-20T05:14:41;8.50;99.90
13684;DHT22;6914;53.552;9.908;2022-12-20T05:17:08;8.60;99.90
13684;DHT22;6914;53.552;9.908;2022-12-20T05:19:35;8.40;99.90
13684;DHT22;6914;53.552;9.908;2022-12-20T05:22:02;8.40;99.90
13684;DHT22;6914;53.552;9.908;2022-12-20T05:24:46;8.10;99.90
13684;DHT22;6914;53.552;9.908;2022-12-20T05:27:27;8.40;99.90
13684;DHT22;6914;53.552;9.908;2022-12-20T05:29:56;8.40;99.90
13684;DHT22;6914;53.552;9.908;2022-12-20T05:32:23;7.90;99.90
13684;DHT22;6914;53.552;9.908;2022-12-20T05:34:50;8.10;99.90
13684;DHT22;6914;53.552;9.908;2022-12-20T05:37:17;8.30;99.90
13684;DHT22;6914;53.552;9.908;2022-12-20T05:39:43;8.30;99.90
13684;DHT22;6914;53.552;9.908;2022-12-20T05:42:10;8.20;99.90
13684;DHT22;6914;53.552;9.908;2022-12-20T05:44:37;8.40;99.90
13684;DHT22;6914;53.552;9.908;2022-12-20T05:47:05;8.40;99.90
13684;DHT22;6914;53.552;9.908;2022-12-20T05:49:32;8.20;99.90
13684;DHT22;6914;53.552;9.908;2022-12-20T05:51:59;8.50;99.90
13684;DHT22;6914;53.552;9.908;2022-12-20T05:54:27;8.40;99.90
13684;DHT22;6914;53.552;9.908;2022-12-20T05:56:54;8.20;99.90
13684;DHT22;6914;53.552;9.908;2022-12-20T05:59:22;8.60;99.90
13684;DHT22;6914;53.552;9.908;2022-12-20T06:01:49;8.30;99.90
13684;DHT22;6914;53.552;9.908;2022-12-20T06:04:17;8.50;99.90
13684;DHT22;6914;53.552;9.908;2022-12-20T06:06:45;11.00;99.90
13684;DHT22;6914;53.552;9.908;2022-12-20T06:09:11;8.40;99.90
13684;DHT22;6914;53.552;9.908;2022-12-20T06:11:38;8.20;99.90
13684;DHT22;6914;53.552;9.908;2022-12-20T06:14:05;8.30;99.90
13684;DHT22;6914;53.552;9.908;2022-12-20T06:16:32;8.30;99.90
13684;DHT22;6914;53.552;9.908;2022-12-20T06:19:00;8.30;99.90
13684;DHT22;6914;53.552;9.908;2022-12-20T06:21:28;8.40;99.90
13684;DHT22;6914;53.552;9.908;2022-12-20T06:23:56;11.60;99.90
13684;DHT22;6914;53.552;9.908;2022-12-20T06:26:23;8.60;99.90
13684;DHT22;6914;53.552;9.908;2022-12-20T06:28:50;8.70;99.90
13684;DHT22;6914;53.552;9.908;2022-12-20T06:31:19;8.90;99.90
13684;DHT22;6914;53.552;9.908;2022-12-20T06:33:46;8.40;99.90
13684;DHT22;6914;53.552;9.908;2022-12-20T06:36:12;9.70;99.90
13684;DHT22;6914;53.552;9.908;2022-12-20T06:38:41;9.90;99.90
13684;DHT22;6914;53.552;9.908;2022-12-20T06:41:07;8.50;99.90
13684;DHT22;6914;53.552;9.908;2022-12-20T06:43:34;8.60;99.90
13684;DHT22;6914;53.552;9.908;2022-12-20T06:46:01;8.70;99.90
13684;DHT22;6914;53.552;9.908;2022-12-20T06:48:28;8.50;99.90
13684;DHT22;6914;53.552;9.908;2022-12-20T06:50:56;9.00;99.90
13684;DHT22;6914;53.552;9.908;2022-12-20T06:53:23;8.70;99.90
13684;DHT22;6914;53.552;9.908;2022-12-20T06:55:52;8.70;99.90
13684;DHT22;6914;53.552;9.908;2022-12-20T06:58:19;9.60;99.90
13684;DHT22;6914;53.552;9.908;2022-12-20T07:00:46;8.80;99.90
13684;DHT22;6914;53.552;9.908;2022-12-20T07:03:13;8.80;99.90
13684;DHT22;6914;53.552;9.908;2022-12-20T07:05:40;9.40;99.90
13684;DHT22;6914;53.552;9.908;2022-12-20T07:08:08;8.50;99.90
13684;DHT22;6914;53.552;9.908;2022-12-20T07:10:36;11.10;99.90
13684;DHT22;6914;53.552;9.908;2022-12-20T07:13:04;8.80;99.90
13684;DHT22;6914;53.552;9.908;2022-12-20T07:15:31;8.40;99.90
13684;DHT22;6914;53.552;9.908;2022-12-20T07:18:04;8.80;99.90
13684;DHT22;6914;53.552;9.908;2022-12-20T07:20:31;8.80;99.90
13684;DHT22;6914;53.552;9.908;2022-12-20T07:22:58;8.80;99.90
13684;DHT22;6914;53.552;9.908;2022-12-20T07:25:25;8.40;99.90
13684;DHT22;6914;53.552;9.908;2022-12-20T07:27:52;9.10;99.90
13684;DHT22;6914;53.552;9.908;2022-12-20T07:30:20;8.80;99.90
13684;DHT22;6914;53.552;9.908;2022-12-20T07:32:47;8.80;99.90
13684;DHT22;6914;53.552;9.908;2022-12-20T07:35:14;8.70;99.90
13684;DHT22;6914;53.552;9.908;2022-12-20T07:37:42;8.70;99.90
13684;DHT22;6914;53.552;9.908;2022-12-20T07:40:11;8.80;99.90
13684;DHT22;6914;53.552;9.908;2022-12-20T07:42:39;8.90;99.90
13684;DHT22;6914;53.552;9.908;2022-12-20T07:45:07;8.70;99.90
13684;DHT22;6914;53.552;9.908;2022-12-20T07:47:35;8.70;99.90
13684;DHT22;6914;53.552;9.908;2022-12-20T07:50:02;8.70;99.90
13684;DHT22;6914;53.552;9.908;2022-12-20T07:52:32;8.80;99.90
13684;DHT22;6914;53.552;9.908;2022-12-20T07:55:02;8.70;99.90
13684;DHT22;6914;53.552;9.908;2022-12-20T07:57:33;8.80;99.90
13684;DHT22;6914;53.552;9.908;2022-12-20T08:00:03;8.90;99.90
13684;DHT22;6914;53.552;9.908;2022-12-20T08:02:33;8.90;99.90
13684;DHT22;6914;53.552;9.908;2022-12-20T08:05:03;9.00;99.90
13684;DHT22;6914;53.552;9.908;2022-12-20T08:07:32;8.90;99.90
13684;DHT22;6914;53.552;9.908;2022-12-20T08:09:59;8.80;99.90
13684;DHT22;6914;53.552;9.908;2022-12-20T08:12:27;8.90;99.90
13684;DHT22;6914;53.552;9.908;2022-12-20T08:14:57;8.90;99.90
13684;DHT22;6914;53.552;9.908;2022-12-20T08:17:24;9.00;99.90
13684;DHT22;6914;53.552;9.908;2022-12-20T08:19:51;9.00;99.90
13684;DHT22;6914;53.552;9.908;2022-12-20T08:22:19;9.00;99.90
13684;DHT22;6914;53.552;9.908;2022-12-20T08:24:47;9.10;99.90
13684;DHT22;6914;53.552;9.908;2022-12-20T08:27:14;9.00;99.90
13684;DHT22;6914;53.552;9.908;2022-12-20T08:29:41;9.00;99.90
13684;DHT22;6914;53.552;9.908;2022-12-20T08:32:08;9.30;99.90
13684;DHT22;6914;53.552;9.908;2022-12-20T08:34:37;9.30;99.90
13684;DHT22;6914;53.552;9.908;2022-12-20T08:37:04;9.20;99.90
13684;DHT22;6914;53.552;9.908;2022-12-20T08:39:32;9.20;99.90
13684;DHT22;6914;53.552;9.908;2022-12-20T08:41:59;9.20;99.90
13684;DHT22;6914;53.552;9.908;2022-12-20T08:44:26;9.30;99.90
13684;DHT22;6914;53.552;9.908;2022-12-20T08:46:53;9.60;99.90
13684;DHT22;6914;53.552;9.908;2022-12-20T08:49:20;9.40;99.90
13684;DHT22;6914;53.552;9.908;2022-12-20T08:51:47;9.40;99.90
13684;DHT22;6914;53.552;9.908;2022-12-20T08:54:14;9.80;99.90
13684;DHT22;6914;53.552;9.908;2022-12-20T08:56:43;9.50;99.90
13684;DHT22;6914;53.552;9.908;2022-12-20T08:59:10;9.50;99.90
13684;DHT22;6914;53.552;9.908;2022-12-20T09:01:37;9.50;99.90
13684;DHT22;6914;53.552;9.908;2022-12-20T09:04:04;9.50;99.90
13684;DHT22;6914;53.552;9.908;2022-12-20T09:06:34;9.40;99.90
13684;DHT22;6914;53.552;9.908;2022-12-20T09:09:01;9.50;99.90
13684;DHT22;6914;53.552;9.908;2022-12-20T09:11:28;10.30;99.90
13684;DHT22;6914;53.552;9.908;2022-12-20T09:13:58;9.60;99.90
13684;DHT22;6914;53.552;9.908;2022-12-20T09:16:27;9.60;99.90
13684;DHT22;6914;53.552;9.908;2022-12-20T09:18:56;9.70;99.90
13684;DHT22;6914;53.552;9.908;2022-12-20T09:21:25;9.70;99.90
13684;DHT22;6914;53.552;9.908;2022-12-20T09:23:53;9.90;99.90
13684;DHT22;6914;53.552;9.908;2022-12-20T09:26:21;9.80;99.90
13684;DHT22;6914;53.552;9.908;2022-12-20T09:28:49;9.80;99.90
13684;DHT22;6914;53.552;9.908;2022-12-20T09:31:20;9.80;99.90
13684;DHT22;6914;53.552;9.908;2022-12-20T09:33:47;9.80;99.90
13684;DHT22;6914;53.552;9.908;2022-12-20T09:36:16;9.80;99.90
13684;DHT22;6914;53.552;9.908;2022-12-20T09:38:43;9.80;99.90
13684;DHT22;6914;53.552;9.908;2022-12-20T09:41:21;9.80;99.90
13684;DHT22;6914;53.552;9.908;2022-12-20T09:43:50;9.80;99.90
13684;DHT22;6914;53.552;9.908;2022-12-20T09:46:19;9.90;99.90
13684;DHT22;6914;53.552;9.908;2022-12-20T09:48:47;9.90;99.90
13684;DHT22;6914;53.552;9.908;2022-12-20T09:51:27;10.80;99.90
13684;DHT22;6914;53.552;9.908;2022-12-20T09:54:06;9.90;99.90
13684;DHT22;6914;53.552;9.908;2022-12-20T09:56:39;9.90;99.90
13684;DHT22;6914;53.552;9.908;2022-12-20T09:59:11;9.90;99.90
13684;DHT22;6914;53.552;9.908;2022-12-20T10:01:43;9.80;99.90
13684;DHT22;6914;53.552;9.908;2022-12-20T10:04:18;9.70;99.90
13684;DHT22;6914;53.552;9.908;2022-12-20T10:07:02;9.70;99.90
13684;DHT22;6914;53.552;9.908;2022-12-20T10:09:42;9.60;99.90
13684;DHT22;6914;53.552;9.908;2022-12-20T10:12:23;9.60;99.90
13684;DHT22;6914;53.552;9.908;2022-12-20T10:15:09;9.30;99.90
13684;DHT22;6914;53.552;9.908;2022-12-20T10:17:54;9.60;99.90
13684;DHT22;6914;53.552;9.908;2022-12-20T10:20:40;9.60;99.90
13684;DHT22;6914;53.552;9.908;2022-12-20T10:23:16;9.60;99.90
13684;DHT22;6914;53.552;9.908;2022-12-20T10:25:49;9.70;99.90
13684;DHT22;6914;53.552;9.908;2022-12-20T10:28:24;10.10;99.90
13684;DHT22;6914;53.552;9.908;2022-12-20T10:30:51;9.70;99.90
13684;DHT22;6914;53.552;9.908;2022-12-20T10:33:21;9.90;99.90
13684;DHT22;6914;53.552;9.908;2022-12-20T10:35:49;9.60;99.90
13684;DHT22;6914;53.552;9.908;2022-12-20T10:38:16;9.90;99.90
13684;DHT22;6914;53.552;9.908;2022-12-20T10:40:46;9.90;99.90
13684;DHT22;6914;53.552;9.908;2022-12-20T10:43:15;10.70;99.90
13684;DHT22;6914;53.552;9.908;2022-12-20T10:45:53;10.10;99.90
13684;DHT22;6914;53.552;9.908;2022-12-20T10:48:41;10.50;99.90
13684;DHT22;6914;53.552;9.908;2022-12-20T10:51:14;10.80;99.90
13684;DHT22;6914;53.552;9.908;2022-12-20T10:53:51;10.80;99.90
13684;DHT22;6914;53.552;9.908;2022-12-20T10:56:20;10.70;99.90
13684;DHT22;6914;53.552;9.908;2022-12-20T10:58:58;10.80;99.90
13684;DHT22;6914;53.552;9.908;2022-12-20T11:01:29;10.60;99.90
13684;DHT22;6914;53.552;9.908;2022-12-20T11:04:02;11.20;99.90
13684;DHT22;6914;53.552;9.908;2022-12-20T11:06:41;10.60;99.90
13684;DHT22;6914;53.552;9.908;2022-12-20T11:09:29;10.90;99.90
13684;DHT22;6914;53.552;9.908;2022-12-20T11:11:57;11.60;99.90
13684;DHT22;6914;53.552;9.908;2022-12-20T11:14:29;12.80;99.90
13684;DHT22;6914;53.552;9.908;2022-12-20T11:16:57;12.30;99.90
13684;DHT22;6914;53.552;9.908;2022-12-20T11:19:43;12.10;99.90
13684;DHT22;6914;53.552;9.908;2022-12-20T11:22:26;11.40;99.90
13684;DHT22;6914;53.552;9.908;2022-12-20T11:25:03;11.60;99.90
13684;DHT22;6914;53.552;9.908;2022-12-20T11:27:39;11.40;99.90
13684;DHT22;6914;53.552;9.908;2022-12-20T11:30:16;11.30;99.90
13684;DHT22;6914;53.552;9.908;2022-12-20T11:33:12;11.30;99.90
13684;DHT22;6914;53.552;9.908;2022-12-20T11:35:51;11.50;99.90
13684;DHT22;6914;53.552;9.908;2022-12-20T11:38:29;12.00;99.90
13684;DHT22;6914;53.552;9.908;2022-12-20T11:41:12;11.30;99.90
13684;DHT22;6914;53.552;9.908;2022-12-20T11:44:08;11.00;99.90
13684;DHT22;6914;53.552;9.908;2022-12-20T11:46:57;11.30;99.90
13684;DHT22;6914;53.552;9.908;2022-12-20T11:49:40;11.10;99.90
13684;DHT22;6914;53.552;9.908;2022-12-20T11:52:19;11.10;99.90
13684;DHT22;6914;53.552;9.908;2022-12-20T11:55:05;11.40;99.90
13684;DHT22;6914;53.552;9.908;2022-12-20T11:57:37;11.00;99.90
13684;DHT22;6914;53.552;9.908;2022-12-20T12:00:10;11.20;99.90
13684;DHT22;6914;53.552;9.908;2022-12-20T12:02:43;11.10;99.90
13684;DHT22;6914;53.552;9.908;2022-12-20T12:05:18;10.90;99.90
13684;DHT22;6914;53.552;9.908;2022-12-20T12:07:51;10.70;99.90
13684;DHT22;6914;53.552;9.908;2022-12-20T12:10:22;11.00;99.90
13684;DHT22;6914;53.552;9.908;2022-12-20T12:12:55;10.90;99.90
13684;DHT22;6914;53.552;9.908;2022-12-20T12:15:29;10.90;99.90
13684;DHT22;6914;53.552;9.908;2022-12-20T12:18:02;11.90;99.90
13684;DHT22;6914;53.552;9.908;2022-12-20T12:20:46;10.90;99.90
13684;DHT22;6914;53.552;9.908;2022-12-20T12:23:20;10.60;99.90
13684;DHT22;6914;53.552;9.908;2022-12-20T12:25:48;11.10;99.90
13684;DHT22;6914;53.552;9.908;2022-12-20T12:28:17;10.60;99.90
13684;DHT22;6914;53.552;9.908;2022-12-20T12:30:47;10.70;99.90
13684;DHT22;6914;53.552;9.908;2022-12-20T12:33:19;11.50;99.90
13684;DHT22;6914;53.552;9.908;2022-12-20T12:36:09;11.40;99.90
13684;DHT22;6914;53.552;9.908;2022-12-20T12:39:05;10.70;99.90
13684;DHT22;6914;53.552;9.908;2022-12-20T12:42:14;9.90;99.90
13684;DHT22;6914;53.552;9.908;2022-12-20T12:44:48;10.30;99.90
13684;DHT22;6914;53.552;9.908;2022-12-20T12:47:20;10.00;99.90
13684;DHT22;6914;53.552;9.908;2022-12-20T12:50:01;10.00;99.90
13684;DHT22;6914;53.552;9.908;2022-12-20T12:52:41;10.00;99.90
13684;DHT22;6914;53.552;9.908;2022-12-20T12:55:42;9.20;99.90
13684;DHT22;6914;53.552;9.908;2022-12-20T12:58:37;9.80;99.90
13684;DHT22;6914;53.552;9.908;2022-12-20T13:01:07;9.10;99.90
13684;DHT22;6914;53.552;9.908;2022-12-20T13:03:45;9.70;99.90
13684;DHT22;6914;53.552;9.908;2022-12-20T13:09:41;9.80;99.90
13684;DHT22;6914;53.552;9.908;2022-12-20T13:18:28;9.70;99.90
13684;DHT22;6914;53.552;9.908;2022-12-20T13:24:35;9.60;99.90
13684;DHT22;6914;53.552;9.908;2022-12-20T13:27:25;9.60;99.90
13684;DHT22;6914;53.552;9.908;2022-12-20T13:33:02;9.60;99.90
13684;DHT22;6914;53.552;9.908;2022-12-20T13:35:43;9.70;99.90
13684;DHT22;6914;53.552;9.908;2022-12-20T13:38:35;9.40;99.90
13684;DHT22;6914;53.552;9.908;2022-12-20T13:41:15;9.50;99.90
13684;DHT22;6914;53.552;9.908;2022-12-20T13:43:45;8.90;99.90
13684;DHT22;6914;53.552;9.908;2022-12-20T13:46:18;9.50;99.90
13684;DHT22;6914;53.552;9.908;2022-12-20T13:48:51;9.50;99.90
13684;DHT22;6914;53.552;9.908;2022-12-20T13:51:37;9.40;99.90
13684;DHT22;6914;53.552;9.908;2022-12-20T13:54:17;9.50;99.90
13684;DHT22;6914;53.552;9.908;2022-12-20T13:56:47;9.40;99.90
13684;DHT22;6914;53.552;9.908;2022-12-20T13:59:20;9.30;99.90
13684;DHT22;6914;53.552;9.908;2022-12-20T14:01:49;9.40;99.90
13684;DHT22;6914;53.552;9.908;2022-12-20T14:04:17;9.30;99.90
13684;DHT22;6914;53.552;9.908;2022-12-20T14:06:51;9.40;99.90
13684;DHT22;6914;53.552;9.908;2022-12-20T14:09:27;9.30;99.90
13684;DHT22;6914;53.552;9.908;2022-12-20T14:12:04;12.00;99.90
13684;DHT22;6914;53.552;9.908;2022-12-20T14:15:17;9.30;99.90
13684;DHT22;6914;53.552;9.908;2022-12-20T14:17:49;9.20;99.90
13684;DHT22;6914;53.552;9.908;2022-12-20T14:20:22;9.30;99.90
13684;DHT22;6914;53.552;9.908;2022-12-20T14:22:56;9.20;99.90
13684;DHT22;6914;53.552;9.908;2022-12-20T14:25:41;9.30;99.90
13684;DHT22;6914;53.552;9.908;2022-12-20T14:28:17;9.40;99.90
13684;DHT22;6914;53.552;9.908;2022-12-20T14:30:45;8.70;99.90
13684;DHT22;6914;53.552;9.908;2022-12-20T14:33:26;12.10;99.90
13684;DHT22;6914;53.552;9.908;2022-12-20T14:35:54;9.10;99.90
13684;DHT22;6914;53.552;9.908;2022-12-20T14:38:29;9.00;99.90
13684;DHT22;6914;53.552;9.908;2022-12-20T14:40:57;9.50;99.90
13684;DHT22;6914;53.552;9.908;2022-12-20T14:43:26;9.20;99.90
13684;DHT22;6914;53.552;9.908;2022-12-20T14:46:16;9.10;99.90
13684;DHT22;6914;53.552;9.908;2022-12-20T14:48:45;9.20;99.90
13684;DHT22;6914;53.552;9.908;2022-12-20T14:51:13;9.10;99.90
13684;DHT22;6914;53.552;9.908;2022-12-20T14:53:47;9.20;99.90
13684;DHT22;6914;53.552;9.908;2022-12-20T14:56:18;10.20;99.90
13684;DHT22;6914;53.552;9.908;2022-12-20T14:59:05;8.90;99.90
13684;DHT22;6914;53.552;9.908;2022-12-20T15:01:36;9.00;99.90
13684;DHT22;6914;53.552;9.908;2022-12-20T15:04:21;8.60;99.90
13684;DHT22;6914;53.552;9.908;2022-12-20T15:06:50;9.20;99.90
13684;DHT22;6914;53.552;9.908;2022-12-20T15:09:20;9.30;99.90
13684;DHT22;6914;53.552;9.908;2022-12-20T15:11:54;9.10;99.90
13684;DHT22;6914;53.552;9.908;2022-12-20T15:14:32;8.90;99.90
13684;DHT22;6914;53.552;9.908;2022-12-20T15:17:08;9.00;99.90
13684;DHT22;6914;53.552;9.908;2022-12-20T15:19:36;8.70;99.90
13684;DHT22;6914;53.552;9.908;2022-12-20T15:22:03;8.60;99.90
13684;DHT22;6914;53.552;9.908;2022-12-20T15:24:32;10.70;99.90
13684;DHT22;6914;53.552;9.908;2022-12-20T15:27:02;8.70;99.90
13684;DHT22;6914;53.552;9.908;2022-12-20T15:29:29;9.10;99.90
13684;DHT22;6914;53.552;9.908;2022-12-20T15:32:03;9.00;99.90
13684;DHT22;6914;53.552;9.908;2022-12-20T15:34:33;10.80;99.90
13684;DHT22;6914;53.552;9.908;2022-12-20T15:37:01;9.10;99.90
13684;DHT22;6914;53.552;9.908;2022-12-20T15:39:30;9.10;99.90
13684;DHT22;6914;53.552;9.908;2022-12-20T15:42:09;8.80;99.90
13684;DHT22;6914;53.552;9.908;2022-12-20T15:44:39;8.30;99.90
13684;DHT22;6914;53.552;9.908;2022-12-20T15:47:09;8.70;99.90
13684;DHT22;6914;53.552;9.908;2022-12-20T15:49:38;9.00;99.90
13684;DHT22;6914;53.552;9.908;2022-12-20T15:52:04;12.20;99.90
13684;DHT22;6914;53.552;9.908;2022-12-20T15:54:33;9.10;99.90
13684;DHT22;6914;53.552;9.908;2022-12-20T15:57:04;8.80;99.90
13684;DHT22;6914;53.552;9.908;2022-12-20T15:59:32;8.70;99.90
13684;DHT22;6914;53.552;9.908;2022-12-20T16:01:59;9.10;99.90
13684;DHT22;6914;53.552;9.908;2022-12-20T16:04:26;8.80;99.90
13684;DHT22;6914;53.552;9.908;2022-12-20T16:06:54;8.60;99.90
13684;DHT22;6914;53.552;9.908;2022-12-20T16:09:21;8.30;99.90
13684;DHT22;6914;53.552;9.908;2022-12-20T16:11:50;9.10;99.90
13684;DHT22;6914;53.552;9.908;2022-12-20T16:14:20;9.50;99.90
13684;DHT22;6914;53.552;9.908;2022-12-20T16:16:47;9.10;99.90
13684;DHT22;6914;53.552;9.908;2022-12-20T16:19:15;9.10;99.90
13684;DHT22;6914;53.552;9.908;2022-12-20T16:21:44;9.20;99.90
13684;DHT22;6914;53.552;9.908;2022-12-20T16:24:13;9.20;99.90
13684;DHT22;6914;53.552;9.908;2022-12-20T16:26:40;9.10;99.90
13684;DHT22;6914;53.552;9.908;2022-12-20T16:29:07;8.60;99.90
13684;DHT22;6914;53.552;9.908;2022-12-20T16:31:37;9.20;99.90
13684;DHT22;6914;53.552;9.908;2022-12-20T16:34:06;9.00;99.90
13684;DHT22;6914;53.552;9.908;2022-12-20T16:36:36;9.10;99.90
13684;DHT22;6914;53.552;9.908;2022-12-20T16:39:03;9.10;99.90
13684;DHT22;6914;53.552;9.908;2022-12-20T16:41:31;9.20;99.90
13684;DHT22;6914;53.552;9.908;2022-12-20T16:44:00;9.10;99.90
13684;DHT22;6914;53.552;9.908;2022-12-20T16:46:30;9.30;99.90